Time;durP1;ratioP1;P1;durP2;ratioP2;P2;SDS_P1;SDS_P2;PMS_P1;PMS_P2;Temp;Humidity;BMP_temperature;BMP_pressure;BME280_temperature;BME280_humidity;BME280_pressure;Samples;Min_cycle;Max_cycle;Signal;HPM_P1;HPM_P2
2022/12/28 00:00:29;;;;;;;;;;;;;;;14.89;67.40;101346.53;2014444;29;20720;-71
2022/12/28 00:01:32;;;;;;;;;;;;;;;14.89;67.40;101340.28;2017108;29;20022;-72
2022/12/28 00:02:34;;;;;;;;;;;;;;;14.89;67.31;101340.28;2016158;29;20391;-72
2022/12/28 00:04:01;;;;;;;;;;;;;;;14.87;67.10;101332.50;1834665;29;21316;-74
2022/12/28 00:05:04;;;;;;;;;;;;;;;14.89;67.43;101323.97;2007283;29;19928;-72
2022/12/28 00:06:06;;;;;;;;;;;;;;;14.89;67.40;101324.78;1999474;29;19933;-71
2022/12/28 00:07:08;;;;;;;;;;;;;;;14.88;67.51;101320.50;2009369;29;19932;-72
2022/12/28 00:08:36;;;;;;;;;;;;;;;14.89;67.15;101310.38;1820527;29;20529;-73
2022/12/28 00:09:38;;;;;;;;;;;;;;;14.88;67.46;101308.81;2006588;29;19932;-71
2022/12/28 00:10:40;;;;;;;;;;;;;;;14.89;67.27;101296.78;2009233;29;20328;-72
2022/12/28 00:12:02;;;;;;;;;;;;;;;14.88;67.22;101301.47;2007645;29;19935;-71
2022/12/28 00:13:05;;;;;;;;;;;;;;;14.89;67.50;101297.59;1756582;29;20441;-71
2022/12/28 00:14:08;;;;;;;;;;;;;;;14.89;67.29;101296.78;2005786;29;19933;-72
2022/12/28 00:15:10;;;;;;;;;;;;;;;14.88;67.45;101304.19;2009384;29;19939;-71
2022/12/28 00:16:15;;;;;;;;;;;;;;;14.89;67.54;101304.94;2009271;29;19932;-71
2022/12/28 00:17:18;;;;;;;;;;;;;;;14.88;67.26;101289.78;1807084;29;20333;-74
2022/12/28 00:18:19;;;;;;;;;;;;;;;14.89;67.51;101297.59;2001789;29;19933;-74
2022/12/28 00:19:22;;;;;;;;;;;;;;;14.88;67.33;101292.50;2012525;29;19933;-75
2022/12/28 00:20:23;;;;;;;;;;;;;;;14.89;67.62;101283.19;2017297;29;19954;-75
2022/12/28 00:21:26;;;;;;;;;;;;;;;14.88;67.35;101279.72;2022118;29;19931;-76
2022/12/28 00:24:22;;;;;;;;;;;;;;;14.88;67.64;101274.28;2017804;29;19932;-72
2022/12/28 00:25:23;;;;;;;;;;;;;;;14.88;67.45;101273.47;2021842;29;19931;-71
2022/12/28 00:26:27;;;;;;;;;;;;;;;14.89;67.60;101275.03;2017454;29;19931;-71
2022/12/28 00:27:29;;;;;;;;;;;;;;;14.88;67.50;101268.84;1803586;29;21003;-72
2022/12/28 00:28:31;;;;;;;;;;;;;;;14.88;67.76;101266.13;2016822;29;20419;-71
2022/12/28 00:29:34;;;;;;;;;;;;;;;14.88;67.81;101273.47;2009715;29;19928;-71
2022/12/28 00:30:37;;;;;;;;;;;;;;;14.88;67.65;101262.59;2009548;29;19932;-71
2022/12/28 00:31:38;;;;;;;;;;;;;;;14.88;67.71;101254.44;2009666;29;19936;-71
2022/12/28 00:34:33;;;;;;;;;;;;;;;14.88;67.81;101251.72;2018221;29;19939;-75
2022/12/28 00:35:35;;;;;;;;;;;;;;;14.88;68.02;101241.66;2012185;29;19932;-74
2022/12/28 00:36:37;;;;;;;;;;;;;;;14.87;67.48;101240.06;2006739;29;19984;-75
2022/12/28 00:38:25;;;;;;;;;;;;;;;14.86;67.84;101232.25;1755814;29;20738;-74
2022/12/28 00:39:26;;;;;;;;;;;;;;;14.89;67.95;101231.53;2011617;29;19931;-74
2022/12/28 00:40:29;;;;;;;;;;;;;;;14.88;67.86;101230.78;2002134;29;20393;-75
2022/12/28 00:41:30;;;;;;;;;;;;;;;14.87;68.17;101234.63;2010238;29;19939;-75
2022/12/28 00:42:33;;;;;;;;;;;;;;;14.88;67.99;101227.25;2017093;29;19957;-75
2022/12/28 00:43:35;;;;;;;;;;;;;;;14.87;67.87;101222.97;2019709;29;19999;-75
2022/12/28 00:44:39;;;;;;;;;;;;;;;14.88;67.76;101227.25;2002745;29;20428;-74
2022/12/28 00:45:42;;;;;;;;;;;;;;;14.87;67.84;101221.03;2005202;29;20007;-75
2022/12/28 00:46:45;;;;;;;;;;;;;;;14.88;67.80;101219.91;2010460;29;20019;-75
2022/12/28 00:47:47;;;;;;;;;;;;;;;14.88;67.76;101213.66;2009744;29;19932;-76
2022/12/28 00:48:49;;;;;;;;;;;;;;;14.88;68.02;101219.91;1788816;29;20942;-72
2022/12/28 00:49:51;;;;;;;;;;;;;;;14.88;67.88;101213.66;2001608;29;19933;-72
2022/12/28 00:51:00;;;;;;;;;;;;;;;14.88;68.11;101210.94;2014201;29;19932;-72
2022/12/28 00:52:02;;;;;;;;;;;;;;;14.87;67.95;101195.78;2009398;29;20028;-72
2022/12/28 00:55:21;;;;;;;;;;;;;;;14.88;67.89;101170.16;2015522;29;20027;-76
2022/12/28 00:56:23;;;;;;;;;;;;;;;14.88;68.04;101175.59;2014695;29;20064;-76
2022/12/28 00:57:25;;;;;;;;;;;;;;;14.88;68.00;101170.16;2015232;29;19932;-76
2022/12/28 00:58:27;;;;;;;;;;;;;;;14.88;68.17;101159.28;2014979;29;20312;-76
2022/12/28 00:59:30;;;;;;;;;;;;;;;14.87;68.00;101169.38;2012392;29;19935;-76
2022/12/28 01:00:35;;;;;;;;;;;;;;;14.87;68.06;101147.63;2006062;29;19932;-76
2022/12/28 01:01:39;;;;;;;;;;;;;;;14.87;67.90;101147.63;2015000;29;19953;-76
2022/12/28 01:02:41;;;;;;;;;;;;;;;14.88;68.01;101154.66;2012370;29;19920;-76
2022/12/28 01:03:44;;;;;;;;;;;;;;;14.88;68.19;101135.63;1999243;29;20064;-75
2022/12/28 01:04:50;;;;;;;;;;;;;;;14.88;67.90;101129.38;1767276;29;20483;-74
2022/12/28 01:05:52;;;;;;;;;;;;;;;14.88;68.31;101140.25;2017769;29;19936;-71
2022/12/28 01:06:54;;;;;;;;;;;;;;;14.88;68.32;101142.97;2013061;29;19939;-72
2022/12/28 01:07:56;;;;;;;;;;;;;;;14.88;68.13;101145.69;1999304;29;20392;-73
2022/12/28 01:08:59;;;;;;;;;;;;;;;14.88;68.27;101143.78;1994196;29;19928;-71
2022/12/28 01:10:27;;;;;;;;;;;;;;;14.86;68.19;101128.97;1703553;29;20887;-73
2022/12/28 01:11:30;;;;;;;;;;;;;;;14.87;68.16;101131.31;2012314;29;19936;-72
2022/12/28 01:12:33;;;;;;;;;;;;;;;14.88;68.08;101121.22;2008666;29;20411;-71
2022/12/28 01:13:38;;;;;;;;;;;;;;;14.87;67.97;101131.31;2014598;29;19932;-72
2022/12/28 01:15:07;;;;;;;;;;;;;;;14.86;68.21;101118.09;1784279;29;21145;-73
2022/12/28 01:16:11;;;;;;;;;;;;;;;14.87;68.19;101114.25;2015379;29;19932;-75
2022/12/28 01:17:13;;;;;;;;;;;;;;;14.88;68.34;101121.22;2014501;29;19961;-75
2022/12/28 01:18:17;;;;;;;;;;;;;;;14.87;68.17;101125.13;2016097;29;19940;-75
2022/12/28 01:19:20;;;;;;;;;;;;;;;14.87;68.13;101117.72;2022048;29;19976;-75
2022/12/28 01:20:22;;;;;;;;;;;;;;;14.88;68.33;101115.81;2023053;29;20451;-75
2022/12/28 01:21:26;;;;;;;;;;;;;;;14.87;68.39;101106.09;2019127;29;19983;-74
2022/12/28 01:22:27;;;;;;;;;;;;;;;14.87;68.19;101115.00;2020851;29;20311;-74
2022/12/28 01:23:30;;;;;;;;;;;;;;;14.88;68.19;101115.81;2009442;29;20400;-74
2022/12/28 01:24:32;;;;;;;;;;;;;;;14.88;68.31;101105.72;2002600;29;19967;-74
2022/12/28 01:27:26;;;;;;;;;;;;;;;14.87;68.60;101114.25;2018656;29;19970;-71
2022/12/28 01:28:28;;;;;;;;;;;;;;;14.87;68.36;101109.56;2012464;29;19928;-71
2022/12/28 01:29:31;;;;;;;;;;;;;;;14.88;68.34;101094.84;2011875;29;20363;-72
2022/12/28 01:30:33;;;;;;;;;;;;;;;14.89;68.25;101101.03;2016446;29;19928;-70
2022/12/28 01:31:37;;;;;;;;;;;;;;;14.87;68.23;101106.84;2014018;29;20427;-70
2022/12/28 01:32:38;;;;;;;;;;;;;;;14.87;68.25;101104.13;2011914;29;20479;-70
2022/12/28 01:33:42;;;;;;;;;;;;;;;14.87;68.35;101108.81;2016667;29;20003;-71
2022/12/28 01:34:44;;;;;;;;;;;;;;;14.88;68.43;101099.50;2017354;29;19939;-71
2022/12/28 01:37:40;;;;;;;;;;;;;;;14.88;68.43;101102.22;2007175;29;19932;-71
2022/12/28 01:38:43;;;;;;;;;;;;;;;14.87;68.46;101092.50;2009218;29;19932;-71
2022/12/28 01:39:45;;;;;;;;;;;;;;;14.88;68.38;101091.34;2001517;29;19932;-71
2022/12/28 01:41:11;;;;;;;;;;;;;;;14.87;68.35;101087.81;1823851;29;20641;-72
2022/12/28 01:42:15;;;;;;;;;;;;;;;14.87;68.52;101087.06;2008780;29;19935;-74
2022/12/28 01:43:17;;;;;;;;;;;;;;;14.87;68.27;101085.09;1995150;29;19944;-75
2022/12/28 01:44:39;;;;;;;;;;;;;;;14.88;68.39;101083.19;1999595;29;19983;-74
2022/12/28 01:46:07;;;;;;;;;;;;;;;14.86;68.21;101074.59;1772530;29;20461;-72
2022/12/28 01:47:11;;;;;;;;;;;;;;;14.87;68.40;101073.47;2008901;29;20432;-71
2022/12/28 01:48:18;;;;;;;;;;;;;;;14.87;68.34;101076.94;2002302;29;20320;-70
2022/12/28 01:49:26;;;;;;;;;;;;;;;14.87;68.45;101065.31;2009262;29;19939;-70
2022/12/28 01:50:29;;;;;;;;;;;;;;;14.87;68.64;101071.50;1749893;29;21033;-71
2022/12/28 01:51:37;;;;;;;;;;;;;;;14.88;68.36;101080.47;2023978;29;20289;-71
2022/12/28 01:52:42;;;;;;;;;;;;;;;14.87;68.50;101066.06;2008982;29;19932;-70
2022/12/28 01:53:44;;;;;;;;;;;;;;;14.87;68.60;101073.47;2014476;29;19931;-70
2022/12/28 01:54:50;;;;;;;;;;;;;;;14.87;68.36;101063.34;2009064;29;19943;-71
2022/12/28 01:56:18;;;;;;;;;;;;;;;14.85;68.58;101067.59;1773533;29;20701;-72
2022/12/28 01:57:24;;;;;;;;;;;;;;;14.87;68.75;101068.03;2006546;29;20395;-70
2022/12/28 01:58:28;;;;;;;;;;;;;;;14.87;68.71;101057.16;2008342;29;19932;-70
2022/12/28 01:59:32;;;;;;;;;;;;;;;14.87;68.46;101054.44;2009333;29;19940;-70
2022/12/28 02:00:35;;;;;;;;;;;;;;;14.88;68.74;101061.44;2008871;29;19928;-70
2022/12/28 02:01:37;;;;;;;;;;;;;;;14.87;68.65;101052.47;2009360;29;19943;-71
2022/12/28 02:02:43;;;;;;;;;;;;;;;14.87;68.92;101049.00;2008881;29;20468;-70
2022/12/28 02:03:46;;;;;;;;;;;;;;;14.87;68.74;101049.75;2002060;29;20110;-71
2022/12/28 02:04:49;;;;;;;;;;;;;;;14.88;68.82;101039.69;2003796;29;19928;-70
2022/12/28 02:08:10;;;;;;;;;;;;;;;14.87;68.55;101038.88;2015623;29;19932;-72
2022/12/28 02:09:16;;;;;;;;;;;;;;;14.87;68.71;101038.88;2013692;29;19935;-70
2022/12/28 02:10:19;;;;;;;;;;;;;;;14.88;68.75;101034.25;2011349;29;19928;-71
2022/12/28 02:11:43;;;;;;;;;;;;;;;14.87;68.74;101028.00;2016007;29;20003;-72
2022/12/28 02:12:45;;;;;;;;;;;;;;;14.87;68.95;101030.72;2011583;29;19935;-72
2022/12/28 02:13:48;;;;;;;;;;;;;;;14.87;68.74;101033.44;2009409;29;19935;-71
2022/12/28 02:14:51;;;;;;;;;;;;;;;14.87;68.69;101033.44;2001201;29;19934;-70
2022/12/28 02:18:34;;;;;;;;;;;;;;;14.87;68.54;101021.81;2014452;29;20704;-71
2022/12/28 02:19:41;;;;;;;;;;;;;;;14.87;68.63;101016.38;2015604;29;19939;-71
2022/12/28 02:23:04;;;;;;;;;;;;;;;14.87;68.93;101008.97;2008940;29;19939;-70
2022/12/28 02:24:31;;;;;;;;;;;;;;;14.88;68.92;101017.94;2013533;29;19932;-72
2022/12/28 02:27:51;;;;;;;;;;;;;;;14.86;68.81;101004.72;2008806;29;20027;-71
2022/12/28 02:29:08;;;;;;;;;;;;;;;14.87;68.80;100991.91;2002314;29;19932;-71
2022/12/28 02:30:12;;;;;;;;;;;;;;;14.88;68.82;101004.34;2007589;29;19932;-71
2022/12/28 02:31:17;;;;;;;;;;;;;;;14.87;68.95;101000.06;2008961;29;19976;-71
2022/12/28 02:32:27;;;;;;;;;;;;;;;14.87;68.77;100995.38;2008073;29;19932;-71
2022/12/28 02:33:35;;;;;;;;;;;;;;;14.87;69.20;100994.63;2007998;29;19939;-71
2022/12/28 02:34:41;;;;;;;;;;;;;;;14.86;68.97;100987.59;2012381;29;20388;-72
2022/12/28 02:36:09;;;;;;;;;;;;;;;14.85;69.02;100981.41;1845326;29;20595;-73
2022/12/28 02:37:20;;;;;;;;;;;;;;;14.88;68.80;100979.88;2003740;29;19939;-75
2022/12/28 02:38:26;;;;;;;;;;;;;;;14.87;68.88;100983.75;1999159;29;19986;-76
2022/12/28 02:39:34;;;;;;;;;;;;;;;14.87;68.96;100984.50;2010904;29;19928;-76
2022/12/28 02:41:14;;;;;;;;;;;;;;;14.87;69.07;100981.03;1945172;29;19928;-73
2022/12/28 02:42:23;;;;;;;;;;;;;;;14.87;68.89;100978.31;2016661;29;19998;-74
2022/12/28 02:43:26;;;;;;;;;;;;;;;14.87;68.85;100956.56;2013869;29;19959;-75
2022/12/28 02:52:16;;;;;;;;;;;;;;;14.87;69.12;100945.69;2021765;29;19927;-75
2022/12/28 02:53:31;;;;;;;;;;;;;;;14.86;69.10;100939.47;2011862;29;19938;-75
2022/12/28 02:56:28;;;;;;;;;;;;;;;14.87;69.15;100940.25;1991358;29;19937;-74
2022/12/28 02:57:41;;;;;;;;;;;;;;;14.87;68.99;100945.69;1994374;29;20456;-75
2022/12/28 02:58:59;;;;;;;;;;;;;;;14.87;69.19;100934.81;1987087;29;19971;-75
2022/12/28 03:00:04;;;;;;;;;;;;;;;14.86;68.95;100942.19;1986911;29;20313;-74
2022/12/28 03:01:14;;;;;;;;;;;;;;;14.87;69.00;100945.69;1774345;29;21027;-71
2022/12/28 03:02:29;;;;;;;;;;;;;;;14.87;69.21;100934.81;1990730;29;20078;-70
2022/12/28 03:03:37;;;;;;;;;;;;;;;14.86;69.27;100944.91;1997294;29;20023;-70
2022/12/28 03:08:19;;;;;;;;;;;;;;;14.86;69.28;100933.22;2008405;29;19939;-72
2022/12/28 03:11:17;;;;;;;;;;;;;;;14.87;69.23;100923.94;2012940;29;19948;-75
2022/12/28 03:12:25;;;;;;;;;;;;;;;14.86;69.52;100909.56;2001129;29;20031;-75
2022/12/28 03:13:42;;;;;;;;;;;;;;;14.87;68.92;100910.34;2008012;29;19933;-75
2022/12/28 03:14:48;;;;;;;;;;;;;;;14.85;68.93;100913.44;1759510;29;20744;-75
2022/12/28 03:15:51;;;;;;;;;;;;;;;14.86;69.42;100904.13;1994839;29;20409;-75
2022/12/28 03:31:43;;;;;;;;;;;;;;;14.87;69.49;100885.88;2010875;29;19931;-71
2022/12/28 03:32:48;;;;;;;;;;;;;;;14.86;69.38;100882.38;2013067;29;19938;-72
2022/12/28 03:33:52;;;;;;;;;;;;;;;14.87;69.48;100891.31;2007905;29;20067;-71
2022/12/28 03:34:55;;;;;;;;;;;;;;;14.85;69.71;100888.19;1995707;29;19929;-71
2022/12/28 03:36:02;;;;;;;;;;;;;;;14.86;69.76;100876.16;1993543;29;19933;-72
2022/12/28 03:37:10;;;;;;;;;;;;;;;14.87;69.60;100864.91;2006523;29;19932;-71
2022/12/28 03:40:08;;;;;;;;;;;;;;;14.86;69.55;100884.31;2011431;29;20331;-71
2022/12/28 03:41:12;;;;;;;;;;;;;;;14.86;69.62;100868.78;2016409;29;20465;-71
2022/12/28 03:43:45;;;;;;;;;;;;;;;14.86;69.38;100865.28;1757953;29;20476;-71
2022/12/28 03:44:53;;;;;;;;;;;;;;;14.86;69.32;100862.56;2009932;29;20373;-71
2022/12/28 03:45:57;;;;;;;;;;;;;;;14.86;69.69;100859.84;2008378;29;19967;-71
2022/12/28 03:47:05;;;;;;;;;;;;;;;14.86;69.61;100855.19;2010153;29;19939;-71
2022/12/28 03:48:10;;;;;;;;;;;;;;;14.86;69.62;100857.13;1738182;29;20624;-72
2022/12/28 03:49:12;;;;;;;;;;;;;;;14.86;69.42;100854.41;2004146;29;20497;-72
2022/12/28 03:50:17;;;;;;;;;;;;;;;14.85;69.73;100850.91;2002174;29;20324;-72
2022/12/28 03:51:20;;;;;;;;;;;;;;;14.86;69.73;100857.13;1994959;29;19978;-72
2022/12/28 03:52:23;;;;;;;;;;;;;;;14.86;69.62;100857.91;1788954;29;20581;-74
2022/12/28 03:53:27;;;;;;;;;;;;;;;14.86;69.81;100840.81;2004454;29;20031;-75
2022/12/28 03:54:32;;;;;;;;;;;;;;;14.86;69.73;100851.69;2003051;29;19937;-75
2022/12/28 03:55:36;;;;;;;;;;;;;;;14.86;69.67;100843.53;2008139;29;19932;-75
2022/12/28 03:58:32;;;;;;;;;;;;;;;14.85;69.52;100844.69;2015628;29;19933;-75
2022/12/28 03:59:34;;;;;;;;;;;;;;;14.86;69.70;100851.69;2017640;29;19932;-75
2022/12/28 04:00:36;;;;;;;;;;;;;;;14.87;69.62;100836.97;2005367;29;20064;-71
2022/12/28 04:03:31;;;;;;;;;;;;;;;14.85;69.65;100822.94;2011471;29;20402;-71
2022/12/28 04:04:32;;;;;;;;;;;;;;;14.85;69.50;100828.38;2009654;29;20003;-72
2022/12/28 04:05:37;;;;;;;;;;;;;;;14.86;69.55;100840.81;2009420;29;19936;-72
2022/12/28 04:08:31;;;;;;;;;;;;;;;14.85;69.81;100820.22;2012755;29;19971;-72
2022/12/28 04:09:33;;;;;;;;;;;;;;;14.86;69.81;100829.94;2009157;29;19932;-71
2022/12/28 04:10:35;;;;;;;;;;;;;;;14.86;69.90;100829.94;2008863;29;19932;-71
2022/12/28 04:11:37;;;;;;;;;;;;;;;14.86;69.54;100835.38;1994998;29;19940;-71
2022/12/28 04:12:40;;;;;;;;;;;;;;;14.85;70.02;100823.75;1994525;29;19981;-71
2022/12/28 04:14:03;;;;;;;;;;;;;;;14.86;69.69;100829.94;1988502;29;20098;-73
2022/12/28 04:15:13;;;;;;;;;;;;;;;14.85;69.54;100822.94;2005189;29;20773;-72
2022/12/28 04:18:08;;;;;;;;;;;;;;;14.86;69.71;100808.19;2010105;29;19972;-75
2022/12/28 04:19:11;;;;;;;;;;;;;;;14.85;69.72;100809.34;2000953;29;19936;-75
2022/12/28 04:20:13;;;;;;;;;;;;;;;14.86;69.68;100821.78;2002701;29;19932;-75
2022/12/28 04:21:17;;;;;;;;;;;;;;;14.85;69.80;100812.06;2008182;29;19939;-75
2022/12/28 04:22:45;;;;;;;;;;;;;;;14.85;69.85;100820.22;1838650;29;20511;-74
2022/12/28 04:23:47;;;;;;;;;;;;;;;14.85;69.93;100818.31;2009614;29;19974;-71
2022/12/28 04:25:00;;;;;;;;;;;;;;;14.86;69.62;100808.19;2003269;29;20032;-71
2022/12/28 04:26:04;;;;;;;;;;;;;;;14.85;69.82;100798.47;2007336;29;20298;-72
2022/12/28 04:27:07;;;;;;;;;;;;;;;14.85;69.74;100803.91;1784184;29;20319;-75
2022/12/28 04:28:08;;;;;;;;;;;;;;;14.85;69.90;100798.47;2018561;29;19927;-75
2022/12/28 04:29:46;;;;;;;;;;;;;;;14.86;70.16;100813.63;2009932;29;20735;-75
2022/12/28 04:32:47;;;;;;;;;;;;;;;14.86;69.90;100808.19;2008111;29;19932;-71
2022/12/28 04:33:49;;;;;;;;;;;;;;;14.86;69.81;100805.47;2002115;29;19978;-71
2022/12/28 04:34:51;;;;;;;;;;;;;;;14.86;70.10;100813.63;2009214;29;20031;-71
2022/12/28 04:36:19;;;;;;;;;;;;;;;14.85;70.10;100806.63;1789624;29;20491;-73
2022/12/28 04:37:24;;;;;;;;;;;;;;;14.86;69.84;100813.63;2006724;29;19932;-73
2022/12/28 04:38:27;;;;;;;;;;;;;;;14.86;70.01;100797.31;2004202;29;19936;-73
2022/12/28 04:39:29;;;;;;;;;;;;;;;14.86;69.79;100802.75;2017051;29;19932;-71
2022/12/28 04:40:51;;;;;;;;;;;;;;;14.86;69.93;100808.19;1755559;29;20693;-71
2022/12/28 04:41:53;;;;;;;;;;;;;;;14.86;69.94;100795.41;2011199;29;19939;-71
2022/12/28 04:42:55;;;;;;;;;;;;;;;14.86;70.01;100786.44;2017137;29;20328;-72
2022/12/28 04:43:57;;;;;;;;;;;;;;;14.85;70.22;100791.13;2017624;29;19927;-72
2022/12/28 04:44:59;;;;;;;;;;;;;;;14.86;69.99;100800.03;2009674;29;20434;-72
2022/12/28 04:46:27;;;;;;;;;;;;;;;14.83;70.12;100787.19;1685183;29;21319;-73
2022/12/28 04:47:29;;;;;;;;;;;;;;;14.85;69.85;100787.59;2012513;29;19939;-75
2022/12/28 04:48:32;;;;;;;;;;;;;;;14.86;69.89;100786.44;2003754;29;19933;-75
2022/12/28 04:49:33;;;;;;;;;;;;;;;14.86;70.19;100778.28;2018017;29;19928;-75
2022/12/28 04:52:30;;;;;;;;;;;;;;;14.86;70.09;100797.31;2016536;29;19932;-75
2022/12/28 04:53:34;;;;;;;;;;;;;;;14.85;70.15;100793.03;2012250;29;20006;-75
2022/12/28 04:54:37;;;;;;;;;;;;;;;14.85;70.12;100788.41;2022778;29;19932;-75
2022/12/28 04:55:39;;;;;;;;;;;;;;;14.84;70.25;100788.78;2020385;29;20292;-75
2022/12/28 04:56:41;;;;;;;;;;;;;;;14.86;69.96;100797.31;2002275;29;20393;-76
2022/12/28 04:57:43;;;;;;;;;;;;;;;14.85;70.43;100793.03;1989814;29;19940;-75
2022/12/28 04:58:46;;;;;;;;;;;;;;;14.86;70.09;100791.88;1996940;29;19929;-75
2022/12/28 04:59:48;;;;;;;;;;;;;;;14.85;70.18;100796.56;1997657;29;20427;-76
2022/12/28 05:02:42;;;;;;;;;;;;;;;14.85;70.13;100790.31;2020824;29;19963;-71
2022/12/28 05:03:47;;;;;;;;;;;;;;;14.85;70.16;100791.13;2014271;29;20296;-72
2022/12/28 05:04:56;;;;;;;;;;;;;;;14.86;70.34;100794.59;2014021;29;20392;-72
2022/12/28 05:06:00;;;;;;;;;;;;;;;14.84;70.35;100792.25;2009595;29;20013;-72
2022/12/28 05:07:03;;;;;;;;;;;;;;;14.85;70.33;100799.28;2011840;29;19939;-73
2022/12/28 05:08:06;;;;;;;;;;;;;;;14.85;70.22;100787.59;2008892;29;20038;-72
2022/12/28 05:09:08;;;;;;;;;;;;;;;14.85;70.10;100782.19;2016485;29;20031;-72
2022/12/28 05:10:10;;;;;;;;;;;;;;;14.86;70.16;100783.72;2023442;29;19968;-72
2022/12/28 05:13:29;;;;;;;;;;;;;;;14.85;70.42;100784.88;2014956;29;19932;-75
2022/12/28 05:14:30;;;;;;;;;;;;;;;14.84;70.35;100784.09;2006094;29;19951;-75
2022/12/28 05:15:38;;;;;;;;;;;;;;;14.84;70.27;100786.81;2009951;29;20410;-76
2022/12/28 05:16:40;;;;;;;;;;;;;;;14.85;70.44;100784.88;2022559;29;20288;-76
2022/12/28 05:17:42;;;;;;;;;;;;;;;14.85;70.41;100784.88;2011543;29;19931;-75
2022/12/28 05:20:36;;;;;;;;;;;;;;;14.85;70.20;100784.88;2015434;29;19938;-75
2022/12/28 05:21:38;;;;;;;;;;;;;;;14.85;70.19;100776.72;2013691;29;19932;-75
2022/12/28 05:22:41;;;;;;;;;;;;;;;14.85;70.42;100771.31;2009556;29;20428;-75
2022/12/28 05:23:44;;;;;;;;;;;;;;;14.86;70.26;100783.72;2009688;29;19932;-75
2022/12/28 05:24:46;;;;;;;;;;;;;;;14.84;70.38;100778.66;2012263;29;19939;-75
2022/12/28 05:25:51;;;;;;;;;;;;;;;14.84;70.05;100775.94;2001723;29;19949;-75
2022/12/28 05:26:54;;;;;;;;;;;;;;;14.85;70.37;100771.31;2002541;29;19940;-76
2022/12/28 05:27:55;;;;;;;;;;;;;;;14.84;70.33;100777.91;2016532;29;19927;-75
2022/12/28 05:28:58;;;;;;;;;;;;;;;14.85;70.33;100768.59;2018062;29;20785;-75
2022/12/28 05:29:59;;;;;;;;;;;;;;;14.85;70.34;100782.97;1799101;29;20889;-70
2022/12/28 05:31:03;;;;;;;;;;;;;;;14.85;70.26;100763.94;2009399;29;19935;-72
2022/12/28 05:32:05;;;;;;;;;;;;;;;14.84;70.35;100767.03;2009494;29;19936;-71
2022/12/28 05:33:07;;;;;;;;;;;;;;;14.85;70.32;100760.44;2009334;29;20148;-70
2022/12/28 05:34:35;;;;;;;;;;;;;;;14.84;70.27;100764.31;1763908;29;21091;-73
2022/12/28 05:35:37;;;;;;;;;;;;;;;14.85;70.16;100761.22;2004880;29;20395;-71
2022/12/28 05:36:39;;;;;;;;;;;;;;;14.85;70.43;100760.44;2008567;29;19960;-71
2022/12/28 05:37:41;;;;;;;;;;;;;;;14.84;70.34;100781.38;2004226;29;19935;-70
2022/12/28 05:39:08;;;;;;;;;;;;;;;14.84;70.29;100767.03;1805931;29;20915;-73
2022/12/28 05:40:11;;;;;;;;;;;;;;;14.85;70.37;100771.31;2007011;29;19955;-71
2022/12/28 05:41:15;;;;;;;;;;;;;;;14.86;70.42;100767.41;2007237;29;20545;-70
2022/12/28 05:42:17;;;;;;;;;;;;;;;14.85;70.68;100763.16;2003535;29;19943;-72
2022/12/28 05:43:20;;;;;;;;;;;;;;;14.85;70.41;100768.59;1776220;29;20659;-72
2022/12/28 05:44:21;;;;;;;;;;;;;;;14.84;70.34;100762.34;2015937;29;20023;-70
2022/12/28 05:45:24;;;;;;;;;;;;;;;14.85;70.56;100771.31;2016086;29;19932;-71
2022/12/28 05:46:26;;;;;;;;;;;;;;;14.84;70.36;100767.03;2008388;29;20440;-71
2022/12/28 05:47:54;;;;;;;;;;;;;;;14.84;70.33;100767.03;1817111;29;20440;-73
2022/12/28 05:48:57;;;;;;;;;;;;;;;14.84;70.32;100772.47;2010500;29;19982;-75
2022/12/28 05:49:58;;;;;;;;;;;;;;;14.85;70.35;100771.31;2001761;29;19939;-75
2022/12/28 05:51:02;;;;;;;;;;;;;;;14.85;70.40;100769.38;2015231;29;19928;-75
2022/12/28 05:52:31;;;;;;;;;;;;;;;14.83;70.49;100768.16;1809178;29;20692;-73
2022/12/28 05:53:33;;;;;;;;;;;;;;;14.85;70.40;100765.88;2009528;29;19932;-71
2022/12/28 05:54:35;;;;;;;;;;;;;;;14.84;70.54;100778.66;2013649;29;19935;-71
2022/12/28 05:55:38;;;;;;;;;;;;;;;14.85;70.46;100782.19;2011325;29;19938;-71
2022/12/28 05:56:42;;;;;;;;;;;;;;;14.85;70.53;100771.31;1704569;29;21166;-73
2022/12/28 05:57:43;;;;;;;;;;;;;;;14.85;70.29;100771.31;2011377;29;19932;-74
2022/12/28 05:58:47;;;;;;;;;;;;;;;14.85;70.51;100774.81;2016685;29;19939;-75
2022/12/28 05:59:48;;;;;;;;;;;;;;;14.84;70.70;100762.34;2019410;29;19931;-75
2022/12/28 06:01:16;;;;;;;;;;;;;;;14.82;70.82;100758.44;1859960;29;20437;-72
2022/12/28 06:02:18;;;;;;;;;;;;;;;14.85;70.40;100769.38;2014677;29;20382;-74
2022/12/28 06:03:26;;;;;;;;;;;;;;;14.86;70.49;100761.97;2012776;29;20022;-74
2022/12/28 06:04:28;;;;;;;;;;;;;;;14.86;70.42;100756.53;2005910;29;20305;-74
2022/12/28 06:05:55;;;;;;;;;;;;;;;14.82;70.74;100748.38;1865765;29;21146;-73
2022/12/28 06:06:58;;;;;;;;;;;;;;;14.84;70.44;100756.91;2016408;29;19991;-74
2022/12/28 06:07:59;;;;;;;;;;;;;;;14.84;70.55;100756.91;1999092;29;19929;-74
2022/12/28 06:09:02;;;;;;;;;;;;;;;14.84;70.56;100758.88;1994361;29;19953;-74
2022/12/28 06:10:29;;;;;;;;;;;;;;;14.83;70.78;100741.78;1811174;29;20986;-73
2022/12/28 06:11:33;;;;;;;;;;;;;;;14.85;70.64;100752.28;2009317;29;19945;-74
2022/12/28 06:12:35;;;;;;;;;;;;;;;14.85;70.60;100746.84;2012229;29;20434;-74
2022/12/28 06:13:38;;;;;;;;;;;;;;;14.85;70.55;100752.28;2009036;29;19932;-74
2022/12/28 06:14:39;;;;;;;;;;;;;;;14.84;70.63;100748.75;2014340;29;19988;-74
2022/12/28 06:17:34;;;;;;;;;;;;;;;14.84;70.51;100756.16;2013272;29;19931;-74
2022/12/28 06:18:36;;;;;;;;;;;;;;;14.85;70.38;100757.72;2009103;29;19999;-74
2022/12/28 06:19:38;;;;;;;;;;;;;;;14.84;70.67;100753.44;2011859;29;19932;-74
2022/12/28 06:20:40;;;;;;;;;;;;;;;14.85;70.52;100757.72;2011759;29;19928;-75
2022/12/28 06:21:42;;;;;;;;;;;;;;;14.85;70.66;100757.72;2013075;29;19928;-74
2022/12/28 06:22:44;;;;;;;;;;;;;;;14.85;70.58;100755.00;2015675;29;19931;-75
2022/12/28 06:23:46;;;;;;;;;;;;;;;14.84;70.44;100756.16;2015467;29;19928;-74
2022/12/28 06:24:48;;;;;;;;;;;;;;;14.84;70.66;100756.91;2018062;29;20011;-74
2022/12/28 06:25:51;;;;;;;;;;;;;;;14.84;70.65;100754.19;2019618;29;19939;-74
2022/12/28 07:18:48;;;;;;;;;;;;;;;14.83;71.16;100744.50;2016876;29;19979;-71
2022/12/28 07:19:50;;;;;;;;;;;;;;;14.83;70.83;100749.94;2014856;29;19928;-70
2022/12/28 07:20:58;;;;;;;;;;;;;;;14.83;70.56;100755.38;2024791;29;19938;-71
2022/12/28 07:22:02;;;;;;;;;;;;;;;14.83;70.63;100754.56;2009203;29;19928;-71
2022/12/28 07:23:03;;;;;;;;;;;;;;;14.82;70.82;100753.81;2009559;29;19939;-72
2022/12/28 07:24:06;;;;;;;;;;;;;;;14.83;70.67;100754.56;2007296;29;19928;-71
2022/12/28 07:25:08;;;;;;;;;;;;;;;14.83;70.91;100754.56;2003667;29;19932;-72
2022/12/28 07:26:12;;;;;;;;;;;;;;;14.83;70.69;100760.00;2008361;29;19936;-72
2022/12/28 07:27:15;;;;;;;;;;;;;;;14.83;70.57;100757.28;1953256;29;19938;-74
2022/12/28 07:28:16;;;;;;;;;;;;;;;14.83;70.37;100752.66;2013748;29;19939;-73
2022/12/28 07:29:19;;;;;;;;;;;;;;;14.84;70.70;100772.47;2007661;29;19932;-73
2022/12/28 07:30:21;;;;;;;;;;;;;;;14.83;70.56;100762.72;2013920;29;19938;-74
2022/12/28 07:31:24;;;;;;;;;;;;;;;14.83;70.61;100760.00;1938336;29;19931;-70
2022/12/28 07:32:26;;;;;;;;;;;;;;;14.83;70.64;100766.22;2000897;29;19940;-71
2022/12/28 07:33:28;;;;;;;;;;;;;;;14.84;70.63;100761.59;1934768;29;21045;-70
2022/12/28 07:34:32;;;;;;;;;;;;;;;14.84;70.67;100756.16;2007059;29;19932;-70
2022/12/28 07:35:34;;;;;;;;;;;;;;;14.84;70.82;100761.59;2008861;29;19932;-70
2022/12/28 07:36:37;;;;;;;;;;;;;;;14.84;70.43;100767.03;2014009;29;20406;-71
2022/12/28 07:37:38;;;;;;;;;;;;;;;14.83;70.36;100757.28;1933286;29;19932;-74
2022/12/28 07:38:41;;;;;;;;;;;;;;;14.83;70.75;100760.81;2017162;29;19931;-76
2022/12/28 07:39:43;;;;;;;;;;;;;;;14.84;70.48;100756.16;2014786;29;19939;-73
2022/12/28 07:40:45;;;;;;;;;;;;;;;14.84;70.79;100764.31;2003005;29;19928;-72